sensor_id;sensor_type;location;lat;lon;timestamp;P1;durP1;ratioP1;P2;durP2;ratioP2
34876;SDS011;21086;44.780;17.194;2023-03-03T00:01:25;24.50;;;16.88;;
34876;SDS011;21086;44.780;17.194;2023-03-03T00:03:53;28.23;;;20.65;;
34876;SDS011;21086;44.780;17.194;2023-03-03T00:06:20;23.98;;;18.80;;
34876;SDS011;21086;44.780;17.194;2023-03-03T00:08:47;22.67;;;17.00;;
34876;SDS011;21086;44.780;17.194;2023-03-03T00:11:14;25.90;;;18.88;;
34876;SDS011;21086;44.780;17.194;2023-03-03T00:13:45;24.77;;;18.60;;
34876;SDS011;21086;44.780;17.194;2023-03-03T00:16:24;22.40;;;17.02;;
34876;SDS011;21086;44.780;17.194;2023-03-03T00:18:56;25.23;;;19.92;;
34876;SDS011;21086;44.780;17.194;2023-03-03T00:21:34;22.55;;;17.38;;
34876;SDS011;21086;44.780;17.194;2023-03-03T00:26:39;21.17;;;15.65;;
34876;SDS011;21086;44.780;17.194;2023-03-03T00:29:30;24.38;;;17.05;;
34876;SDS011;21086;44.780;17.194;2023-03-03T00:34:54;22.92;;;17.10;;
34876;SDS011;21086;44.780;17.194;2023-03-03T00:39:55;22.63;;;17.67;;
34876;SDS011;21086;44.780;17.194;2023-03-03T00:42:46;27.33;;;18.30;;
34876;SDS011;21086;44.780;17.194;2023-03-03T00:45:39;27.00;;;18.33;;
34876;SDS011;21086;44.780;17.194;2023-03-03T00:48:15;23.60;;;17.83;;
34876;SDS011;21086;44.780;17.194;2023-03-03T00:50:50;21.15;;;15.77;;
34876;SDS011;21086;44.780;17.194;2023-03-03T00:53:20;21.50;;;16.52;;
34876;SDS011;21086;44.780;17.194;2023-03-03T00:55:49;21.48;;;17.35;;
34876;SDS011;21086;44.780;17.194;2023-03-03T00:58:18;20.35;;;14.88;;
34876;SDS011;21086;44.780;17.194;2023-03-03T01:00:51;23.05;;;16.17;;
34876;SDS011;21086;44.780;17.194;2023-03-03T01:03:20;26.90;;;18.52;;
34876;SDS011;21086;44.780;17.194;2023-03-03T01:05:50;25.30;;;18.77;;
34876;SDS011;21086;44.780;17.194;2023-03-03T01:08:17;22.70;;;16.95;;
34876;SDS011;21086;44.780;17.194;2023-03-03T01:10:50;22.67;;;16.42;;
34876;SDS011;21086;44.780;17.194;2023-03-03T01:13:19;24.17;;;17.05;;
34876;SDS011;21086;44.780;17.194;2023-03-03T01:15:49;20.73;;;14.30;;
34876;SDS011;21086;44.780;17.194;2023-03-03T01:18:16;14.43;;;11.52;;
34876;SDS011;21086;44.780;17.194;2023-03-03T01:20:43;15.27;;;10.52;;
34876;SDS011;21086;44.780;17.194;2023-03-03T01:23:10;13.95;;;10.50;;
34876;SDS011;21086;44.780;17.194;2023-03-03T01:25:37;11.95;;;9.30;;
34876;SDS011;21086;44.780;17.194;2023-03-03T01:28:04;15.48;;;11.07;;
34876;SDS011;21086;44.780;17.194;2023-03-03T01:30:32;12.75;;;9.85;;
34876;SDS011;21086;44.780;17.194;2023-03-03T01:32:59;11.23;;;7.75;;
34876;SDS011;21086;44.780;17.194;2023-03-03T01:35:26;12.77;;;10.00;;
34876;SDS011;21086;44.780;17.194;2023-03-03T01:37:55;16.65;;;12.52;;
34876;SDS011;21086;44.780;17.194;2023-03-03T01:40:25;15.75;;;12.15;;
34876;SDS011;21086;44.780;17.194;2023-03-03T01:42:54;14.63;;;11.32;;
34876;SDS011;21086;44.780;17.194;2023-03-03T01:45:28;12.88;;;9.88;;
34876;SDS011;21086;44.780;17.194;2023-03-03T01:50:53;11.63;;;9.05;;
34876;SDS011;21086;44.780;17.194;2023-03-03T01:53:33;12.30;;;9.02;;
34876;SDS011;21086;44.780;17.194;2023-03-03T01:56:12;11.68;;;9.25;;
34876;SDS011;21086;44.780;17.194;2023-03-03T01:58:40;11.20;;;8.00;;
34876;SDS011;21086;44.780;17.194;2023-03-03T02:01:13;10.77;;;7.68;;
34876;SDS011;21086;44.780;17.194;2023-03-03T02:03:43;9.00;;;7.32;;
34876;SDS011;21086;44.780;17.194;2023-03-03T02:06:12;10.88;;;7.72;;
34876;SDS011;21086;44.780;17.194;2023-03-03T02:11:28;11.15;;;7.30;;
34876;SDS011;21086;44.780;17.194;2023-03-03T02:13:58;9.30;;;7.68;;
34876;SDS011;21086;44.780;17.194;2023-03-03T02:16:25;8.63;;;6.70;;
34876;SDS011;21086;44.780;17.194;2023-03-03T02:18:52;11.68;;;6.75;;
34876;SDS011;21086;44.780;17.194;2023-03-03T02:21:20;10.63;;;8.07;;
34876;SDS011;21086;44.780;17.194;2023-03-03T02:26:40;9.57;;;7.18;;
34876;SDS011;21086;44.780;17.194;2023-03-03T02:29:08;9.10;;;7.25;;
34876;SDS011;21086;44.780;17.194;2023-03-03T02:31:36;9.27;;;7.18;;
34876;SDS011;21086;44.780;17.194;2023-03-03T02:34:04;10.73;;;8.10;;
34876;SDS011;21086;44.780;17.194;2023-03-03T02:36:35;10.88;;;8.52;;
34876;SDS011;21086;44.780;17.194;2023-03-03T02:39:17;10.52;;;7.78;;
34876;SDS011;21086;44.780;17.194;2023-03-03T02:44:37;12.02;;;8.80;;
34876;SDS011;21086;44.780;17.194;2023-03-03T02:47:05;13.13;;;9.70;;
34876;SDS011;21086;44.780;17.194;2023-03-03T02:49:33;11.60;;;8.60;;
34876;SDS011;21086;44.780;17.194;2023-03-03T02:52:03;12.40;;;8.55;;
34876;SDS011;21086;44.780;17.194;2023-03-03T02:54:32;11.20;;;8.25;;
34876;SDS011;21086;44.780;17.194;2023-03-03T02:56:59;10.35;;;7.97;;
34876;SDS011;21086;44.780;17.194;2023-03-03T02:59:27;11.55;;;9.00;;
34876;SDS011;21086;44.780;17.194;2023-03-03T03:01:54;12.23;;;7.70;;
34876;SDS011;21086;44.780;17.194;2023-03-03T03:04:25;14.27;;;11.35;;
34876;SDS011;21086;44.780;17.194;2023-03-03T03:06:53;13.45;;;10.77;;
34876;SDS011;21086;44.780;17.194;2023-03-03T03:09:21;10.93;;;8.32;;
34876;SDS011;21086;44.780;17.194;2023-03-03T03:11:50;15.50;;;7.95;;
34876;SDS011;21086;44.780;17.194;2023-03-03T03:14:17;9.52;;;7.43;;
34876;SDS011;21086;44.780;17.194;2023-03-03T03:16:44;11.13;;;8.45;;
34876;SDS011;21086;44.780;17.194;2023-03-03T03:19:11;15.70;;;11.68;;
34876;SDS011;21086;44.780;17.194;2023-03-03T03:21:38;16.08;;;12.38;;
34876;SDS011;21086;44.780;17.194;2023-03-03T03:24:05;20.30;;;14.60;;
34876;SDS011;21086;44.780;17.194;2023-03-03T03:26:32;21.95;;;14.30;;
34876;SDS011;21086;44.780;17.194;2023-03-03T03:28:59;19.30;;;12.77;;
34876;SDS011;21086;44.780;17.194;2023-03-03T03:31:27;18.98;;;13.15;;
34876;SDS011;21086;44.780;17.194;2023-03-03T03:33:53;20.20;;;14.32;;
34876;SDS011;21086;44.780;17.194;2023-03-03T03:36:20;17.65;;;12.93;;
34876;SDS011;21086;44.780;17.194;2023-03-03T03:38:47;17.10;;;13.05;;
34876;SDS011;21086;44.780;17.194;2023-03-03T03:41:15;19.27;;;13.73;;
34876;SDS011;21086;44.780;17.194;2023-03-03T03:43:42;15.82;;;11.93;;
34876;SDS011;21086;44.780;17.194;2023-03-03T03:46:08;20.10;;;14.10;;
34876;SDS011;21086;44.780;17.194;2023-03-03T03:48:36;19.05;;;14.52;;
34876;SDS011;21086;44.780;17.194;2023-03-03T03:51:03;21.80;;;15.10;;
34876;SDS011;21086;44.780;17.194;2023-03-03T03:53:30;20.38;;;14.52;;
34876;SDS011;21086;44.780;17.194;2023-03-03T03:55:57;22.83;;;15.32;;
34876;SDS011;21086;44.780;17.194;2023-03-03T03:58:25;20.80;;;13.55;;
34876;SDS011;21086;44.780;17.194;2023-03-03T04:00:52;22.30;;;15.77;;
34876;SDS011;21086;44.780;17.194;2023-03-03T04:03:19;21.15;;;13.35;;
34876;SDS011;21086;44.780;17.194;2023-03-03T04:05:46;20.15;;;13.43;;
34876;SDS011;21086;44.780;17.194;2023-03-03T04:10:49;17.35;;;13.07;;
34876;SDS011;21086;44.780;17.194;2023-03-03T04:13:16;18.08;;;13.20;;
34876;SDS011;21086;44.780;17.194;2023-03-03T04:15:43;15.82;;;11.35;;
34876;SDS011;21086;44.780;17.194;2023-03-03T04:18:10;19.92;;;13.02;;
34876;SDS011;21086;44.780;17.194;2023-03-03T04:20:38;19.17;;;14.63;;
34876;SDS011;21086;44.780;17.194;2023-03-03T04:23:06;19.27;;;14.13;;
34876;SDS011;21086;44.780;17.194;2023-03-03T04:25:33;17.48;;;13.27;;
34876;SDS011;21086;44.780;17.194;2023-03-03T04:28:00;19.88;;;14.57;;
34876;SDS011;21086;44.780;17.194;2023-03-03T04:30:30;16.08;;;13.10;;
34876;SDS011;21086;44.780;17.194;2023-03-03T04:32:57;17.83;;;13.90;;
34876;SDS011;21086;44.780;17.194;2023-03-03T04:35:24;17.38;;;13.68;;
34876;SDS011;21086;44.780;17.194;2023-03-03T04:37:51;17.20;;;13.60;;
34876;SDS011;21086;44.780;17.194;2023-03-03T04:40:18;18.08;;;12.68;;
34876;SDS011;21086;44.780;17.194;2023-03-03T04:42:45;22.98;;;12.70;;
34876;SDS011;21086;44.780;17.194;2023-03-03T04:45:12;16.50;;;12.13;;
34876;SDS011;21086;44.780;17.194;2023-03-03T04:47:39;17.38;;;12.45;;
34876;SDS011;21086;44.780;17.194;2023-03-03T04:50:07;14.93;;;11.98;;
34876;SDS011;21086;44.780;17.194;2023-03-03T04:52:35;17.80;;;12.52;;
34876;SDS011;21086;44.780;17.194;2023-03-03T04:55:02;18.73;;;13.35;;
34876;SDS011;21086;44.780;17.194;2023-03-03T04:57:30;19.02;;;13.57;;
34876;SDS011;21086;44.780;17.194;2023-03-03T04:59:57;18.50;;;13.88;;
34876;SDS011;21086;44.780;17.194;2023-03-03T05:02:24;25.08;;;17.40;;
34876;SDS011;21086;44.780;17.194;2023-03-03T05:04:51;43.15;;;26.88;;
34876;SDS011;21086;44.780;17.194;2023-03-03T05:07:18;34.97;;;22.30;;
34876;SDS011;21086;44.780;17.194;2023-03-03T05:09:46;31.25;;;18.88;;
34876;SDS011;21086;44.780;17.194;2023-03-03T05:12:12;30.75;;;20.70;;
34876;SDS011;21086;44.780;17.194;2023-03-03T05:14:39;28.17;;;19.70;;
34876;SDS011;21086;44.780;17.194;2023-03-03T05:17:07;23.55;;;16.35;;
34876;SDS011;21086;44.780;17.194;2023-03-03T05:19:34;21.15;;;15.27;;
34876;SDS011;21086;44.780;17.194;2023-03-03T05:22:01;22.40;;;14.32;;
34876;SDS011;21086;44.780;17.194;2023-03-03T05:24:27;21.83;;;15.65;;
34876;SDS011;21086;44.780;17.194;2023-03-03T05:26:54;26.27;;;17.80;;
34876;SDS011;21086;44.780;17.194;2023-03-03T05:29:22;20.75;;;14.68;;
34876;SDS011;21086;44.780;17.194;2023-03-03T05:31:48;22.02;;;15.32;;
34876;SDS011;21086;44.780;17.194;2023-03-03T05:34:15;27.67;;;18.23;;
34876;SDS011;21086;44.780;17.194;2023-03-03T05:36:42;25.25;;;15.30;;
34876;SDS011;21086;44.780;17.194;2023-03-03T05:39:09;25.63;;;16.50;;
34876;SDS011;21086;44.780;17.194;2023-03-03T05:41:36;23.88;;;16.80;;
34876;SDS011;21086;44.780;17.194;2023-03-03T05:44:03;28.25;;;18.02;;
34876;SDS011;21086;44.780;17.194;2023-03-03T05:46:30;28.42;;;17.75;;
34876;SDS011;21086;44.780;17.194;2023-03-03T05:48:57;20.67;;;14.05;;
34876;SDS011;21086;44.780;17.194;2023-03-03T05:51:24;24.55;;;16.33;;
34876;SDS011;21086;44.780;17.194;2023-03-03T05:53:52;22.00;;;15.50;;
34876;SDS011;21086;44.780;17.194;2023-03-03T05:56:22;24.88;;;17.48;;
34876;SDS011;21086;44.780;17.194;2023-03-03T05:58:49;12.68;;;9.85;;
34876;SDS011;21086;44.780;17.194;2023-03-03T06:01:16;21.73;;;13.30;;
34876;SDS011;21086;44.780;17.194;2023-03-03T06:03:43;17.73;;;12.82;;
34876;SDS011;21086;44.780;17.194;2023-03-03T06:06:10;22.88;;;15.35;;
34876;SDS011;21086;44.780;17.194;2023-03-03T06:08:39;22.38;;;16.65;;
34876;SDS011;21086;44.780;17.194;2023-03-03T06:11:06;18.52;;;14.07;;
34876;SDS011;21086;44.780;17.194;2023-03-03T06:13:33;24.90;;;15.68;;
34876;SDS011;21086;44.780;17.194;2023-03-03T06:16:00;21.50;;;15.65;;
34876;SDS011;21086;44.780;17.194;2023-03-03T06:18:27;19.75;;;12.98;;
34876;SDS011;21086;44.780;17.194;2023-03-03T06:20:54;24.60;;;15.95;;
34876;SDS011;21086;44.780;17.194;2023-03-03T06:23:21;20.73;;;14.98;;
34876;SDS011;21086;44.780;17.194;2023-03-03T06:25:48;20.63;;;14.23;;
34876;SDS011;21086;44.780;17.194;2023-03-03T06:28:15;22.75;;;16.00;;
34876;SDS011;21086;44.780;17.194;2023-03-03T06:30:42;20.17;;;12.05;;
34876;SDS011;21086;44.780;17.194;2023-03-03T06:33:09;24.02;;;16.08;;
34876;SDS011;21086;44.780;17.194;2023-03-03T06:35:36;26.33;;;18.25;;
34876;SDS011;21086;44.780;17.194;2023-03-03T06:38:03;19.35;;;14.93;;
34876;SDS011;21086;44.780;17.194;2023-03-03T06:40:30;19.13;;;14.73;;
34876;SDS011;21086;44.780;17.194;2023-03-03T06:42:57;22.75;;;15.32;;
34876;SDS011;21086;44.780;17.194;2023-03-03T06:45:24;26.80;;;16.23;;
34876;SDS011;21086;44.780;17.194;2023-03-03T06:47:51;19.60;;;13.30;;
34876;SDS011;21086;44.780;17.194;2023-03-03T06:50:18;19.67;;;13.70;;
34876;SDS011;21086;44.780;17.194;2023-03-03T06:52:46;17.55;;;11.88;;
34876;SDS011;21086;44.780;17.194;2023-03-03T06:55:20;15.13;;;12.57;;
34876;SDS011;21086;44.780;17.194;2023-03-03T06:57:48;15.82;;;13.52;;
34876;SDS011;21086;44.780;17.194;2023-03-03T07:00:22;23.92;;;20.05;;
34876;SDS011;21086;44.780;17.194;2023-03-03T07:03:00;20.13;;;15.68;;
34876;SDS011;21086;44.780;17.194;2023-03-03T07:05:33;17.75;;;13.90;;
34876;SDS011;21086;44.780;17.194;2023-03-03T07:08:01;17.17;;;13.68;;
34876;SDS011;21086;44.780;17.194;2023-03-03T07:10:32;17.67;;;13.50;;
34876;SDS011;21086;44.780;17.194;2023-03-03T07:13:07;15.15;;;12.63;;
34876;SDS011;21086;44.780;17.194;2023-03-03T07:15:51;15.15;;;12.15;;
34876;SDS011;21086;44.780;17.194;2023-03-03T07:21:11;13.40;;;10.73;;
34876;SDS011;21086;44.780;17.194;2023-03-03T07:23:41;12.32;;;10.57;;
34876;SDS011;21086;44.780;17.194;2023-03-03T07:26:11;12.70;;;10.35;;
34876;SDS011;21086;44.780;17.194;2023-03-03T07:28:41;14.88;;;11.60;;
34876;SDS011;21086;44.780;17.194;2023-03-03T07:31:35;13.55;;;10.05;;
34876;SDS011;21086;44.780;17.194;2023-03-03T07:34:26;13.77;;;11.18;;
34876;SDS011;21086;44.780;17.194;2023-03-03T07:37:10;12.25;;;10.10;;
34876;SDS011;21086;44.780;17.194;2023-03-03T07:39:44;13.65;;;10.77;;
34876;SDS011;21086;44.780;17.194;2023-03-03T07:42:23;14.73;;;13.05;;
34876;SDS011;21086;44.780;17.194;2023-03-03T07:44:58;14.38;;;11.85;;
34876;SDS011;21086;44.780;17.194;2023-03-03T07:47:27;13.02;;;10.90;;
34876;SDS011;21086;44.780;17.194;2023-03-03T07:49:59;11.55;;;9.50;;
34876;SDS011;21086;44.780;17.194;2023-03-03T07:52:40;11.55;;;9.35;;
34876;SDS011;21086;44.780;17.194;2023-03-03T07:55:22;20.80;;;14.93;;
34876;SDS011;21086;44.780;17.194;2023-03-03T07:57:51;32.30;;;19.33;;
34876;SDS011;21086;44.780;17.194;2023-03-03T08:03:16;23.42;;;17.75;;
34876;SDS011;21086;44.780;17.194;2023-03-03T08:05:48;23.65;;;18.23;;
34876;SDS011;21086;44.780;17.194;2023-03-03T08:08:30;27.95;;;22.42;;
34876;SDS011;21086;44.780;17.194;2023-03-03T08:11:02;25.88;;;17.70;;
34876;SDS011;21086;44.780;17.194;2023-03-03T08:18:36;29.15;;;21.02;;
34876;SDS011;21086;44.780;17.194;2023-03-03T08:21:15;47.38;;;26.02;;
34876;SDS011;21086;44.780;17.194;2023-03-03T08:23:44;40.55;;;21.85;;
34876;SDS011;21086;44.780;17.194;2023-03-03T08:26:11;44.88;;;29.23;;
34876;SDS011;21086;44.780;17.194;2023-03-03T08:28:39;41.13;;;28.65;;
34876;SDS011;21086;44.780;17.194;2023-03-03T08:31:06;37.05;;;25.00;;
34876;SDS011;21086;44.780;17.194;2023-03-03T08:33:45;31.40;;;23.35;;
34876;SDS011;21086;44.780;17.194;2023-03-03T08:36:12;35.40;;;23.35;;
34876;SDS011;21086;44.780;17.194;2023-03-03T08:38:40;30.83;;;22.67;;
34876;SDS011;21086;44.780;17.194;2023-03-03T08:41:08;33.35;;;26.75;;
34876;SDS011;21086;44.780;17.194;2023-03-03T08:43:36;33.85;;;26.13;;
34876;SDS011;21086;44.780;17.194;2023-03-03T08:46:03;38.13;;;30.45;;
34876;SDS011;21086;44.780;17.194;2023-03-03T08:48:32;37.03;;;26.83;;
34876;SDS011;21086;44.780;17.194;2023-03-03T08:50:59;34.72;;;28.70;;
34876;SDS011;21086;44.780;17.194;2023-03-03T08:53:26;33.97;;;23.95;;
34876;SDS011;21086;44.780;17.194;2023-03-03T08:55:54;33.10;;;25.67;;
34876;SDS011;21086;44.780;17.194;2023-03-03T08:58:21;31.80;;;22.60;;
34876;SDS011;21086;44.780;17.194;2023-03-03T09:01:00;31.20;;;25.50;;
34876;SDS011;21086;44.780;17.194;2023-03-03T09:03:27;37.53;;;26.17;;
34876;SDS011;21086;44.780;17.194;2023-03-03T09:05:54;37.28;;;26.88;;
34876;SDS011;21086;44.780;17.194;2023-03-03T09:08:21;33.70;;;24.25;;
34876;SDS011;21086;44.780;17.194;2023-03-03T09:10:48;17.58;;;13.38;;
34876;SDS011;21086;44.780;17.194;2023-03-03T09:13:16;21.80;;;16.30;;
34876;SDS011;21086;44.780;17.194;2023-03-03T09:15:44;22.33;;;16.77;;
34876;SDS011;21086;44.780;17.194;2023-03-03T09:18:16;23.88;;;17.63;;
34876;SDS011;21086;44.780;17.194;2023-03-03T09:20:46;24.38;;;19.10;;
34876;SDS011;21086;44.780;17.194;2023-03-03T09:25:50;27.67;;;20.42;;
34876;SDS011;21086;44.780;17.194;2023-03-03T09:28:27;25.40;;;19.98;;
34876;SDS011;21086;44.780;17.194;2023-03-03T09:31:01;29.27;;;20.23;;
34876;SDS011;21086;44.780;17.194;2023-03-03T09:33:42;26.02;;;19.75;;
34876;SDS011;21086;44.780;17.194;2023-03-03T09:38:52;28.65;;;21.00;;
34876;SDS011;21086;44.780;17.194;2023-03-03T09:44:26;24.73;;;19.88;;
34876;SDS011;21086;44.780;17.194;2023-03-03T09:47:22;20.35;;;17.08;;
34876;SDS011;21086;44.780;17.194;2023-03-03T09:58:27;24.95;;;18.38;;
34876;SDS011;21086;44.780;17.194;2023-03-03T10:04:23;26.83;;;18.70;;
34876;SDS011;21086;44.780;17.194;2023-03-03T10:16:00;25.98;;;18.58;;
34876;SDS011;21086;44.780;17.194;2023-03-03T10:24:30;26.23;;;19.75;;
34876;SDS011;21086;44.780;17.194;2023-03-03T10:32:48;28.80;;;22.90;;
34876;SDS011;21086;44.780;17.194;2023-03-03T10:44:07;30.65;;;21.95;;
34876;SDS011;21086;44.780;17.194;2023-03-03T10:55:17;27.95;;;21.67;;
34876;SDS011;21086;44.780;17.194;2023-03-03T11:03:47;27.67;;;20.13;;
34876;SDS011;21086;44.780;17.194;2023-03-03T11:09:18;34.75;;;23.92;;
34876;SDS011;21086;44.780;17.194;2023-03-03T11:14:53;33.15;;;21.92;;
34876;SDS011;21086;44.780;17.194;2023-03-03T11:17:29;28.88;;;23.25;;
34876;SDS011;21086;44.780;17.194;2023-03-03T11:23:24;25.42;;;19.02;;
34876;SDS011;21086;44.780;17.194;2023-03-03T11:29:23;27.45;;;21.20;;
34876;SDS011;21086;44.780;17.194;2023-03-03T11:35:21;23.30;;;17.55;;
34876;SDS011;21086;44.780;17.194;2023-03-03T11:41:03;17.55;;;14.52;;
34876;SDS011;21086;44.780;17.194;2023-03-03T11:43:43;17.90;;;14.23;;
34876;SDS011;21086;44.780;17.194;2023-03-03T11:46:17;17.55;;;12.85;;
34876;SDS011;21086;44.780;17.194;2023-03-03T11:49:02;17.30;;;13.23;;
34876;SDS011;21086;44.780;17.194;2023-03-03T11:54:56;13.80;;;12.15;;
34876;SDS011;21086;44.780;17.194;2023-03-03T12:11:09;14.32;;;8.65;;
34876;SDS011;21086;44.780;17.194;2023-03-03T12:13:50;15.15;;;12.35;;
34876;SDS011;21086;44.780;17.194;2023-03-03T12:16:38;21.48;;;15.85;;
34876;SDS011;21086;44.780;17.194;2023-03-03T12:22:17;12.70;;;9.43;;
34876;SDS011;21086;44.780;17.194;2023-03-03T12:27:59;12.10;;;9.20;;
34876;SDS011;21086;44.780;17.194;2023-03-03T12:30:33;11.10;;;8.90;;
34876;SDS011;21086;44.780;17.194;2023-03-03T12:39:14;11.85;;;8.98;;
34876;SDS011;21086;44.780;17.194;2023-03-03T12:47:28;10.82;;;8.93;;
34876;SDS011;21086;44.780;17.194;2023-03-03T13:06:28;25.33;;;16.42;;
34876;SDS011;21086;44.780;17.194;2023-03-03T13:17:14;14.02;;;9.98;;
34876;SDS011;21086;44.780;17.194;2023-03-03T13:19:45;11.05;;;9.40;;
34876;SDS011;21086;44.780;17.194;2023-03-03T13:28:04;15.20;;;11.55;;
34876;SDS011;21086;44.780;17.194;2023-03-03T13:30:47;13.90;;;9.57;;
34876;SDS011;21086;44.780;17.194;2023-03-03T13:33:29;11.73;;;9.68;;
34876;SDS011;21086;44.780;17.194;2023-03-03T13:36:10;15.90;;;11.57;;
34876;SDS011;21086;44.780;17.194;2023-03-03T13:38:40;20.90;;;14.45;;
34876;SDS011;21086;44.780;17.194;2023-03-03T13:41:19;18.13;;;13.05;;
34876;SDS011;21086;44.780;17.194;2023-03-03T13:44:11;17.27;;;13.18;;
34876;SDS011;21086;44.780;17.194;2023-03-03T13:46:53;17.77;;;12.75;;
34876;SDS011;21086;44.780;17.194;2023-03-03T13:52:10;16.00;;;11.98;;
34876;SDS011;21086;44.780;17.194;2023-03-03T14:00:20;23.60;;;18.08;;
34876;SDS011;21086;44.780;17.194;2023-03-03T14:05:44;19.60;;;14.82;;
34876;SDS011;21086;44.780;17.194;2023-03-03T14:17:01;15.65;;;11.98;;
34876;SDS011;21086;44.780;17.194;2023-03-03T14:19:56;16.25;;;12.35;;
34876;SDS011;21086;44.780;17.194;2023-03-03T14:25:19;20.08;;;15.38;;
34876;SDS011;21086;44.780;17.194;2023-03-03T14:35:25;14.73;;;11.80;;
34876;SDS011;21086;44.780;17.194;2023-03-03T14:40:34;22.27;;;17.40;;
34876;SDS011;21086;44.780;17.194;2023-03-03T14:43:07;20.33;;;16.35;;
34876;SDS011;21086;44.780;17.194;2023-03-03T14:45:50;17.15;;;14.60;;
34876;SDS011;21086;44.780;17.194;2023-03-03T14:50:48;17.98;;;11.45;;
34876;SDS011;21086;44.780;17.194;2023-03-03T14:55:46;21.17;;;16.50;;
34876;SDS011;21086;44.780;17.194;2023-03-03T15:03:57;17.83;;;12.65;;
34876;SDS011;21086;44.780;17.194;2023-03-03T15:06:34;16.70;;;10.15;;
34876;SDS011;21086;44.780;17.194;2023-03-03T15:11:52;21.70;;;16.92;;
34876;SDS011;21086;44.780;17.194;2023-03-03T15:14:42;24.33;;;18.05;;
34876;SDS011;21086;44.780;17.194;2023-03-03T15:36:43;14.63;;;10.75;;
34876;SDS011;21086;44.780;17.194;2023-03-03T15:42:19;12.18;;;9.27;;
34876;SDS011;21086;44.780;17.194;2023-03-03T15:45:12;11.70;;;9.18;;
34876;SDS011;21086;44.780;17.194;2023-03-03T15:50:42;12.63;;;9.05;;
34876;SDS011;21086;44.780;17.194;2023-03-03T16:04:08;19.88;;;15.48;;
34876;SDS011;21086;44.780;17.194;2023-03-03T16:06:59;15.20;;;12.60;;
34876;SDS011;21086;44.780;17.194;2023-03-03T16:15:36;14.43;;;10.77;;
34876;SDS011;21086;44.780;17.194;2023-03-03T16:23:51;23.17;;;17.33;;
34876;SDS011;21086;44.780;17.194;2023-03-03T16:26:53;35.05;;;20.83;;
34876;SDS011;21086;44.780;17.194;2023-03-03T16:40:59;25.38;;;20.27;;
34876;SDS011;21086;44.780;17.194;2023-03-03T16:49:30;30.70;;;20.95;;
34876;SDS011;21086;44.780;17.194;2023-03-03T16:54:42;29.52;;;22.77;;
34876;SDS011;21086;44.780;17.194;2023-03-03T16:57:08;30.00;;;23.48;;
34876;SDS011;21086;44.780;17.194;2023-03-03T16:59:49;32.05;;;23.90;;
34876;SDS011;21086;44.780;17.194;2023-03-03T17:05:16;32.10;;;22.67;;
34876;SDS011;21086;44.780;17.194;2023-03-03T17:10:51;25.52;;;16.50;;
34876;SDS011;21086;44.780;17.194;2023-03-03T17:13:27;19.45;;;14.57;;
34876;SDS011;21086;44.780;17.194;2023-03-03T17:24:50;22.80;;;17.20;;
34876;SDS011;21086;44.780;17.194;2023-03-03T17:27:43;19.35;;;15.38;;
34876;SDS011;21086;44.780;17.194;2023-03-03T17:30:25;22.23;;;17.40;;
34876;SDS011;21086;44.780;17.194;2023-03-03T17:36:21;21.48;;;17.38;;
34876;SDS011;21086;44.780;17.194;2023-03-03T17:41:30;17.58;;;14.63;;
34876;SDS011;21086;44.780;17.194;2023-03-03T17:46:33;23.05;;;17.77;;
34876;SDS011;21086;44.780;17.194;2023-03-03T17:58:43;32.42;;;23.70;;
34876;SDS011;21086;44.780;17.194;2023-03-03T18:18:01;37.92;;;28.23;;
34876;SDS011;21086;44.780;17.194;2023-03-03T18:23:30;36.45;;;23.60;;
34876;SDS011;21086;44.780;17.194;2023-03-03T18:26:28;22.50;;;16.17;;
34876;SDS011;21086;44.780;17.194;2023-03-03T18:29:11;30.35;;;22.35;;
34876;SDS011;21086;44.780;17.194;2023-03-03T18:34:30;36.83;;;28.85;;
34876;SDS011;21086;44.780;17.194;2023-03-03T18:43:02;24.55;;;19.15;;
34876;SDS011;21086;44.780;17.194;2023-03-03T18:50:33;24.38;;;17.48;;
34876;SDS011;21086;44.780;17.194;2023-03-03T18:55:56;29.15;;;22.17;;
34876;SDS011;21086;44.780;17.194;2023-03-03T19:04:09;31.27;;;21.27;;
34876;SDS011;21086;44.780;17.194;2023-03-03T19:17:56;30.23;;;22.27;;
34876;SDS011;21086;44.780;17.194;2023-03-03T19:27:03;21.98;;;14.00;;
34876;SDS011;21086;44.780;17.194;2023-03-03T19:40:20;15.95;;;12.88;;
34876;SDS011;21086;44.780;17.194;2023-03-03T19:48:39;44.05;;;33.13;;
34876;SDS011;21086;44.780;17.194;2023-03-03T19:51:30;49.05;;;35.03;;
34876;SDS011;21086;44.780;17.194;2023-03-03T19:56:43;58.63;;;41.55;;
34876;SDS011;21086;44.780;17.194;2023-03-03T20:05:30;39.38;;;30.40;;
34876;SDS011;21086;44.780;17.194;2023-03-03T20:08:00;46.63;;;36.03;;
34876;SDS011;21086;44.780;17.194;2023-03-03T20:22:37;42.40;;;33.08;;
34876;SDS011;21086;44.780;17.194;2023-03-03T20:33:21;34.13;;;25.10;;
34876;SDS011;21086;44.780;17.194;2023-03-03T20:38:57;30.75;;;22.20;;
34876;SDS011;21086;44.780;17.194;2023-03-03T20:47:03;31.83;;;23.73;;
34876;SDS011;21086;44.780;17.194;2023-03-03T20:55:48;25.52;;;20.17;;
34876;SDS011;21086;44.780;17.194;2023-03-03T21:01:12;23.88;;;17.27;;
34876;SDS011;21086;44.780;17.194;2023-03-03T21:03:42;30.38;;;23.00;;
34876;SDS011;21086;44.780;17.194;2023-03-03T21:06:12;26.48;;;19.50;;
34876;SDS011;21086;44.780;17.194;2023-03-03T21:08:48;31.80;;;22.95;;
34876;SDS011;21086;44.780;17.194;2023-03-03T21:14:21;39.20;;;28.58;;
34876;SDS011;21086;44.780;17.194;2023-03-03T21:16:51;30.75;;;23.20;;
34876;SDS011;21086;44.780;17.194;2023-03-03T21:19:22;22.90;;;18.00;;
34876;SDS011;21086;44.780;17.194;2023-03-03T21:21:52;28.58;;;20.67;;
34876;SDS011;21086;44.780;17.194;2023-03-03T21:24:20;39.00;;;29.20;;
34876;SDS011;21086;44.780;17.194;2023-03-03T21:34:28;38.28;;;27.95;;
34876;SDS011;21086;44.780;17.194;2023-03-03T21:37:05;42.50;;;30.70;;
34876;SDS011;21086;44.780;17.194;2023-03-03T21:42:08;35.67;;;27.20;;
34876;SDS011;21086;44.780;17.194;2023-03-03T21:47:13;34.13;;;25.80;;
34876;SDS011;21086;44.780;17.194;2023-03-03T21:49:42;37.33;;;27.73;;
34876;SDS011;21086;44.780;17.194;2023-03-03T21:52:12;33.70;;;25.08;;
34876;SDS011;21086;44.780;17.194;2023-03-03T21:54:42;36.25;;;27.35;;
34876;SDS011;21086;44.780;17.194;2023-03-03T21:57:10;34.47;;;25.30;;
34876;SDS011;21086;44.780;17.194;2023-03-03T21:59:38;32.45;;;24.40;;
34876;SDS011;21086;44.780;17.194;2023-03-03T22:02:05;33.13;;;25.13;;
34876;SDS011;21086;44.780;17.194;2023-03-03T22:04:33;35.97;;;27.27;;
34876;SDS011;21086;44.780;17.194;2023-03-03T22:07:00;36.40;;;27.40;;
34876;SDS011;21086;44.780;17.194;2023-03-03T22:09:27;39.45;;;28.65;;
34876;SDS011;21086;44.780;17.194;2023-03-03T22:11:54;35.30;;;27.15;;
34876;SDS011;21086;44.780;17.194;2023-03-03T22:14:21;31.67;;;23.80;;
34876;SDS011;21086;44.780;17.194;2023-03-03T22:16:48;28.77;;;21.73;;
34876;SDS011;21086;44.780;17.194;2023-03-03T22:19:15;30.00;;;23.40;;
34876;SDS011;21086;44.780;17.194;2023-03-03T22:21:42;22.90;;;16.77;;
34876;SDS011;21086;44.780;17.194;2023-03-03T22:24:08;32.00;;;21.42;;